Terminal Aerodrome Forecast
Issued by NWS

Home | Current Version | Previous Version | Text Only | Print | Product List | Glossary On
Versions: 1 2 3 4 5 6 7 8 9 10 11 12 13 14 15
000
FTUS46 KMFR 242300 RRA
TAFOTH
TAF
KOTH 242350Z 2500/2524 13007KT P6SM -SHRA SCT035 BKN060
     FM250300 13007KT P6SM VCSH SCT040 BKN070
     FM250800 15009KT P6SM -SHRA BKN035 OVC050 WS020/19040KT
     FM251400 17015G25KT P6SM -RA BKN035 OVC050
     FM251700 18025G34KT P6SM RA BKN020 OVC035=

USA.gov is the U.S. government's official web portal to all federal, state and local government web resources and services.